createdAt,value
2018-01-07T00:00:39.128Z,58.20
2018-01-07T00:01:44.082Z,58.40
2018-01-07T00:02:48.957Z,58.60
2018-01-07T00:03:54.572Z,58.60
2018-01-07T00:04:59.463Z,58.60
2018-01-07T00:06:04.363Z,58.60
2018-01-07T00:07:09.323Z,58.70
2018-01-07T00:08:14.797Z,58.70
2018-01-07T00:09:19.878Z,58.70
2018-01-07T00:10:24.694Z,58.70
2018-01-07T00:11:30.687Z,58.80
2018-01-07T00:12:36.438Z,58.80
2018-01-07T00:13:42.941Z,58.90
2018-01-07T00:14:47.926Z,58.80
2018-01-07T00:15:52.834Z,58.80
2018-01-07T00:16:58.048Z,58.90
2018-01-07T00:18:02.984Z,58.80
2018-01-07T00:19:07.862Z,59.60
2018-01-07T00:20:12.605Z,58.90
2018-01-07T00:21:17.679Z,59.00
2018-01-07T00:22:22.409Z,59.10
2018-01-07T00:23:27.489Z,59.00
2018-01-07T00:24:32.622Z,59.10
2018-01-07T00:25:37.405Z,59.00
2018-01-07T00:26:42.305Z,59.10
2018-01-07T00:27:47.280Z,59.00
2018-01-07T00:28:52.338Z,59.20
2018-01-07T00:29:57.271Z,59.50
2018-01-07T00:31:02.088Z,59.10
2018-01-07T00:32:07.447Z,59.10
2018-01-07T00:33:12.390Z,59.20
2018-01-07T00:34:17.313Z,59.20
2018-01-07T00:35:22.171Z,59.20
2018-01-07T00:36:27.052Z,59.20
2018-01-07T00:37:31.780Z,59.30
2018-01-07T00:38:36.517Z,59.30
2018-01-07T00:39:41.334Z,59.20
2018-01-07T00:40:46.123Z,59.20
2018-01-07T00:41:50.894Z,59.80
2018-01-07T00:42:55.689Z,59.20
2018-01-07T00:44:00.583Z,59.20
2018-01-07T00:45:05.429Z,59.20
2018-01-07T00:46:10.509Z,59.20
2018-01-07T00:47:15.411Z,59.20
2018-01-07T00:48:20.359Z,59.20
2018-01-07T00:49:25.264Z,59.30
2018-01-07T00:50:30.014Z,59.30
2018-01-07T00:51:34.860Z,59.40
2018-01-07T00:52:39.791Z,59.30
2018-01-07T00:53:44.558Z,59.40
2018-01-07T00:54:49.405Z,59.30
2018-01-07T00:55:54.460Z,59.30
2018-01-07T00:56:59.393Z,59.40
2018-01-07T00:58:04.397Z,59.30
2018-01-07T00:59:09.244Z,59.40
2018-01-07T01:00:14.120Z,59.40
2018-01-07T01:01:19.028Z,59.30
2018-01-07T01:02:23.862Z,59.30
2018-01-07T01:03:28.743Z,59.30
2018-01-07T01:04:33.528Z,59.40
2018-01-07T01:05:38.359Z,59.40
2018-01-07T01:06:43.605Z,59.30
2018-01-07T01:07:48.334Z,59.40
2018-01-07T01:08:53.083Z,59.20
2018-01-07T01:09:57.843Z,59.20
2018-01-07T01:11:02.694Z,59.20
2018-01-07T01:12:07.554Z,59.30
2018-01-07T01:13:12.425Z,59.20
2018-01-07T01:14:17.164Z,59.20
2018-01-07T01:15:21.880Z,59.30
2018-01-07T01:16:26.606Z,59.20
2018-01-07T01:17:31.334Z,59.20
2018-01-07T01:18:36.068Z,59.20
2018-01-07T01:19:40.885Z,59.20
2018-01-07T01:20:45.834Z,59.20
2018-01-07T01:21:50.762Z,59.20
2018-01-07T01:22:55.561Z,59.10
2018-01-07T01:24:00.371Z,59.20
2018-01-07T01:25:06.311Z,59.10
2018-01-07T01:26:11.239Z,59.10
2018-01-07T01:27:16.179Z,59.20
2018-01-07T01:28:20.972Z,59.20
2018-01-07T01:29:25.885Z,59.20
2018-01-07T01:30:30.672Z,59.20
2018-01-07T01:31:35.392Z,59.20
2018-01-07T01:32:40.198Z,59.20
2018-01-07T01:33:45.095Z,59.20
2018-01-07T01:34:49.878Z,59.20
2018-01-07T01:35:54.860Z,59.20
2018-01-07T01:36:59.827Z,59.20
2018-01-07T01:38:04.621Z,59.20
2018-01-07T01:39:09.452Z,59.20
2018-01-07T01:40:14.225Z,59.20
2018-01-07T01:41:19.089Z,59.20
2018-01-07T01:42:23.908Z,59.20
2018-01-07T01:43:29.952Z,59.20
2018-01-07T01:44:34.734Z,59.20
2018-01-07T01:45:39.610Z,59.30
2018-01-07T01:46:44.525Z,59.20
2018-01-07T01:47:49.458Z,59.30
2018-01-07T01:48:54.346Z,59.20
2018-01-07T01:49:59.091Z,59.30
2018-01-07T01:51:03.990Z,59.20
2018-01-07T01:52:08.790Z,59.20
2018-01-07T01:53:14.128Z,59.10
2018-01-07T01:54:18.937Z,59.20
2018-01-07T01:55:23.633Z,59.20
2018-01-07T01:56:28.362Z,59.20
2018-01-07T01:57:33.203Z,59.10
2018-01-07T01:58:37.972Z,59.10
2018-01-07T01:59:42.841Z,59.00
2018-01-07T02:00:47.640Z,59.00
2018-01-07T02:01:53.442Z,59.00
2018-01-07T02:02:58.333Z,59.00
2018-01-07T02:04:06.195Z,59.10
2018-01-07T02:05:11.016Z,59.00
2018-01-07T02:06:15.805Z,58.90
2018-01-07T02:07:20.784Z,59.00
2018-01-07T02:08:25.619Z,59.00
2018-01-07T02:09:30.368Z,58.90
2018-01-07T02:10:35.113Z,58.90
2018-01-07T02:11:39.990Z,58.90
2018-01-07T02:12:44.793Z,58.90
2018-01-07T02:13:49.621Z,58.90
2018-01-07T02:14:54.635Z,58.80
2018-01-07T02:15:59.591Z,58.80
2018-01-07T02:17:04.396Z,58.80
2018-01-07T02:18:09.303Z,58.80
2018-01-07T02:19:14.095Z,58.80
2018-01-07T02:20:19.458Z,58.80
2018-01-07T02:21:24.313Z,58.70
2018-01-07T02:22:29.122Z,58.70
2018-01-07T02:23:34.291Z,58.70
2018-01-07T02:24:39.116Z,58.70
2018-01-07T02:25:44.048Z,58.70
2018-01-07T02:26:48.809Z,59.30
2018-01-07T02:27:53.661Z,58.70
2018-01-07T02:28:58.454Z,58.70
2018-01-07T02:30:03.489Z,58.60
2018-01-07T02:31:08.453Z,58.70
2018-01-07T02:32:13.421Z,58.60
2018-01-07T02:33:18.340Z,58.60
2018-01-07T02:34:23.084Z,58.70
2018-01-07T02:35:27.911Z,58.60
2018-01-07T02:36:32.772Z,58.70
2018-01-07T02:37:37.707Z,58.80
2018-01-07T02:38:43.272Z,58.70
2018-01-07T02:39:48.118Z,58.70
2018-01-07T02:40:52.927Z,58.70
2018-01-07T02:41:57.909Z,58.80
2018-01-07T02:43:02.748Z,58.70
2018-01-07T02:44:07.586Z,58.70
2018-01-07T02:45:12.511Z,58.70
2018-01-07T02:46:17.257Z,58.70
2018-01-07T02:47:22.029Z,58.70
2018-01-07T02:48:26.859Z,58.70
2018-01-07T02:49:31.669Z,58.60
2018-01-07T02:50:36.388Z,58.60
2018-01-07T02:51:41.148Z,58.60
2018-01-07T02:52:45.938Z,58.60
2018-01-07T02:53:50.688Z,58.50
2018-01-07T02:54:55.506Z,58.50
2018-01-07T02:56:00.449Z,58.50
2018-01-07T02:57:06.581Z,58.50
2018-01-07T02:58:11.563Z,58.40
2018-01-07T02:59:16.322Z,58.40
2018-01-07T03:00:21.275Z,58.40
2018-01-07T03:01:26.111Z,58.40
2018-01-07T03:02:31.035Z,58.40
2018-01-07T03:03:35.857Z,58.50
2018-01-07T03:04:40.605Z,58.30
2018-01-07T03:05:45.847Z,58.30
2018-01-07T03:06:51.043Z,58.30
2018-01-07T03:07:55.886Z,58.30
2018-01-07T03:09:00.816Z,58.20
2018-01-07T03:10:05.612Z,58.20
2018-01-07T03:11:10.421Z,58.20
2018-01-07T03:12:15.314Z,58.20
2018-01-07T03:13:20.083Z,58.30
2018-01-07T03:14:24.945Z,58.20
2018-01-07T03:15:30.932Z,58.20
2018-01-07T03:16:35.803Z,58.20
2018-01-07T03:17:40.604Z,58.20
2018-01-07T03:18:45.395Z,58.20
2018-01-07T03:19:50.338Z,58.30
2018-01-07T03:20:55.088Z,58.30
2018-01-07T03:22:00.043Z,58.30
2018-01-07T03:23:04.921Z,58.20
2018-01-07T03:24:09.850Z,58.30
2018-01-07T03:25:14.649Z,58.20
2018-01-07T03:26:19.522Z,58.20
2018-01-07T03:27:24.401Z,58.20
2018-01-07T03:28:29.288Z,58.20
2018-01-07T03:29:34.026Z,58.10
2018-01-07T03:30:38.989Z,58.20
2018-01-07T03:31:43.731Z,58.20
2018-01-07T03:32:48.533Z,58.10
2018-01-07T03:33:54.602Z,58.10
2018-01-07T03:34:59.406Z,58.10
2018-01-07T03:36:04.225Z,58.10
2018-01-07T03:37:08.994Z,58.10
2018-01-07T03:38:13.900Z,58.80
2018-01-07T03:39:18.681Z,58.10
2018-01-07T03:40:23.468Z,58.10
2018-01-07T03:41:28.469Z,58.10
2018-01-07T03:42:33.318Z,58.10
2018-01-07T03:43:38.128Z,58.10
2018-01-07T03:44:42.895Z,58.10
2018-01-07T03:45:47.798Z,58.70
2018-01-07T03:46:52.711Z,58.10
2018-01-07T03:47:57.527Z,58.10
2018-01-07T03:49:02.337Z,58.10
2018-01-07T03:50:07.228Z,58.10
2018-01-07T03:51:12.004Z,58.10
2018-01-07T03:52:17.944Z,58.10
2018-01-07T03:53:22.765Z,58.10
2018-01-07T03:54:27.639Z,58.00
2018-01-07T03:55:32.457Z,58.10
2018-01-07T03:56:37.275Z,58.10
2018-01-07T03:57:42.059Z,58.10
2018-01-07T03:58:46.910Z,58.10
2018-01-07T03:59:51.833Z,58.10
2018-01-07T04:00:56.694Z,58.10
2018-01-07T04:02:01.453Z,58.10
2018-01-07T04:03:06.340Z,58.00
2018-01-07T04:04:11.517Z,58.00
2018-01-07T04:05:16.294Z,57.90
2018-01-07T04:06:21.947Z,58.00
2018-01-07T04:07:26.693Z,58.00
2018-01-07T04:08:31.457Z,58.00
2018-01-07T04:09:36.333Z,58.00
2018-01-07T04:10:42.175Z,58.00
2018-01-07T04:11:46.979Z,58.00
2018-01-07T04:12:51.901Z,58.00
2018-01-07T04:13:56.618Z,58.00
2018-01-07T04:15:01.528Z,57.90
2018-01-07T04:16:06.435Z,57.90
2018-01-07T04:17:11.313Z,57.90
2018-01-07T04:18:16.088Z,57.80
2018-01-07T04:19:20.968Z,57.80
2018-01-07T04:20:25.825Z,57.80
2018-01-07T04:21:30.561Z,57.70
2018-01-07T04:22:35.516Z,57.70
2018-01-07T04:23:40.266Z,57.70
2018-01-07T04:24:45.078Z,57.70
2018-01-07T04:25:49.987Z,57.70
2018-01-07T04:26:54.718Z,57.70
2018-01-07T04:27:59.466Z,57.70
2018-01-07T04:29:05.127Z,57.70
2018-01-07T04:30:10.434Z,57.70
2018-01-07T04:31:15.187Z,57.70
2018-01-07T04:32:20.090Z,57.70
2018-01-07T04:33:25.108Z,57.70
2018-01-07T04:34:29.928Z,57.60
2018-01-07T04:35:34.762Z,57.60
2018-01-07T04:36:39.471Z,57.70
2018-01-07T04:37:44.314Z,57.60
2018-01-07T04:38:49.160Z,57.70
2018-01-07T04:39:53.921Z,57.70
2018-01-07T04:40:58.759Z,57.70
2018-01-07T04:42:03.539Z,57.70
2018-01-07T04:43:08.355Z,57.70
2018-01-07T04:44:13.086Z,57.70
2018-01-07T04:45:17.774Z,57.70
2018-01-07T04:46:22.474Z,57.70
2018-01-07T04:47:27.697Z,57.70
2018-01-07T04:48:32.821Z,57.70
2018-01-07T04:49:37.638Z,57.60
2018-01-07T04:50:42.565Z,57.60
2018-01-07T04:51:47.441Z,57.70
2018-01-07T04:52:52.300Z,57.70
2018-01-07T04:53:57.178Z,57.70
2018-01-07T04:55:01.938Z,57.80
2018-01-07T04:56:06.730Z,57.60
2018-01-07T04:57:11.462Z,57.70
2018-01-07T04:58:16.298Z,57.70
2018-01-07T04:59:21.028Z,57.70
2018-01-07T05:00:25.832Z,57.60
2018-01-07T05:01:30.595Z,57.60
2018-01-07T05:02:35.427Z,57.50
2018-01-07T05:03:40.249Z,57.60
2018-01-07T05:04:44.978Z,57.60
2018-01-07T05:05:49.737Z,57.60
2018-01-07T05:06:54.899Z,57.60
2018-01-07T05:07:59.733Z,57.60
2018-01-07T05:09:04.652Z,57.60
2018-01-07T05:10:09.478Z,57.70
2018-01-07T05:11:14.358Z,57.70
2018-01-07T05:12:19.127Z,57.70
2018-01-07T05:13:24.080Z,57.60
2018-01-07T05:14:28.911Z,57.60
2018-01-07T05:15:33.660Z,57.60
2018-01-07T05:16:38.434Z,57.60
2018-01-07T05:17:43.240Z,57.60
2018-01-07T05:18:48.120Z,57.60
2018-01-07T05:19:52.895Z,57.60
2018-01-07T05:20:57.688Z,57.60
2018-01-07T05:22:02.617Z,57.60
2018-01-07T05:23:07.511Z,57.70
2018-01-07T05:24:12.369Z,57.70
2018-01-07T05:25:17.123Z,57.70
2018-01-07T05:26:21.933Z,57.70
2018-01-07T05:27:26.824Z,57.70
2018-01-07T05:28:31.559Z,57.70
2018-01-07T05:29:36.295Z,57.70
2018-01-07T05:30:41.158Z,57.70
2018-01-07T05:31:45.988Z,57.70
2018-01-07T05:32:50.693Z,57.60
2018-01-07T05:33:55.570Z,57.60
2018-01-07T05:35:00.476Z,57.60
2018-01-07T05:36:05.372Z,57.50
2018-01-07T05:37:10.147Z,57.50
2018-01-07T05:38:14.915Z,57.50
2018-01-07T05:39:22.684Z,57.40
2018-01-07T05:40:27.476Z,57.40
2018-01-07T05:41:32.283Z,57.40
2018-01-07T05:42:36.983Z,57.50
2018-01-07T05:43:41.755Z,57.30
2018-01-07T05:44:46.532Z,57.30
2018-01-07T05:45:51.278Z,57.30
2018-01-07T05:46:55.996Z,57.40
2018-01-07T05:48:00.791Z,57.40
2018-01-07T05:49:05.652Z,57.30
2018-01-07T05:50:10.580Z,57.30
2018-01-07T05:51:15.480Z,57.30
2018-01-07T05:52:20.241Z,57.40
2018-01-07T05:53:25.022Z,57.30
2018-01-07T05:54:29.735Z,57.30
2018-01-07T05:55:34.583Z,57.30
2018-01-07T05:56:39.397Z,57.40
2018-01-07T05:57:44.178Z,57.30
2018-01-07T05:58:48.981Z,57.30
2018-01-07T05:59:53.863Z,57.30
2018-01-07T06:00:58.669Z,57.30
2018-01-07T06:02:03.505Z,57.30
2018-01-07T06:03:08.290Z,57.40
2018-01-07T06:04:13.348Z,57.30
2018-01-07T06:05:18.182Z,57.40
2018-01-07T06:06:23.075Z,50.50
2018-01-07T06:07:28.629Z,46.40
2018-01-07T06:08:33.382Z,44.00
2018-01-07T06:09:38.086Z,42.00
2018-01-07T06:10:43.006Z,40.00
2018-01-07T06:11:47.760Z,38.80
2018-01-07T06:12:52.548Z,38.10
2018-01-07T06:13:57.366Z,37.80
2018-01-07T06:15:02.404Z,38.10
2018-01-07T06:16:07.208Z,39.50
2018-01-07T06:17:12.048Z,41.10
2018-01-07T06:18:16.826Z,41.70
2018-01-07T06:19:21.588Z,41.60
2018-01-07T06:20:26.461Z,41.50
2018-01-07T06:21:31.214Z,41.50
2018-01-07T06:22:36.355Z,41.90
2018-01-07T06:23:41.091Z,42.50
2018-01-07T06:24:45.972Z,43.00
2018-01-07T06:25:50.685Z,43.40
2018-01-07T06:26:55.745Z,43.60
2018-01-07T06:28:00.503Z,44.00
2018-01-07T06:29:05.381Z,44.40
2018-01-07T06:30:10.239Z,44.50
2018-01-07T06:31:15.003Z,44.70
2018-01-07T06:32:19.780Z,44.90
2018-01-07T06:33:24.540Z,45.10
2018-01-07T06:34:29.271Z,45.30
2018-01-07T06:35:34.063Z,45.50
2018-01-07T06:36:38.891Z,45.60
2018-01-07T06:37:43.658Z,45.60
2018-01-07T06:38:48.578Z,45.80
2018-01-07T06:39:53.437Z,45.90
2018-01-07T06:40:59.206Z,46.00
2018-01-07T06:42:04.538Z,46.00
2018-01-07T06:43:09.460Z,46.80
2018-01-07T06:44:14.259Z,46.10
2018-01-07T06:45:19.023Z,46.10
2018-01-07T06:46:23.883Z,46.10
2018-01-07T06:47:28.761Z,46.30
2018-01-07T06:48:33.561Z,46.00
2018-01-07T06:49:38.684Z,46.00
2018-01-07T06:50:43.783Z,46.00
2018-01-07T06:51:48.583Z,46.00
2018-01-07T06:52:53.512Z,45.90
2018-01-07T06:53:58.362Z,45.40
2018-01-07T06:55:03.197Z,44.90
2018-01-07T06:56:08.074Z,44.80
2018-01-07T06:57:13.037Z,45.00
2018-01-07T06:58:17.989Z,45.30
2018-01-07T06:59:23.604Z,45.40
2018-01-07T07:00:28.615Z,45.60
2018-01-07T07:01:33.463Z,45.80
2018-01-07T07:02:38.281Z,46.00
2018-01-07T07:03:43.176Z,46.20
2018-01-07T07:04:47.948Z,46.10
2018-01-07T07:05:52.751Z,45.90
2018-01-07T07:06:57.582Z,46.00
2018-01-07T07:08:02.614Z,46.20
2018-01-07T07:09:07.421Z,46.40
2018-01-07T07:10:12.251Z,46.50
2018-01-07T07:11:17.073Z,46.60
2018-01-07T07:12:22.029Z,46.70
2018-01-07T07:13:26.799Z,46.80
2018-01-07T07:14:31.703Z,47.00
2018-01-07T07:15:36.562Z,46.90
2018-01-07T07:16:41.347Z,47.10
2018-01-07T07:17:47.578Z,47.30
2018-01-07T07:18:52.431Z,47.60
2018-01-07T07:19:57.147Z,47.80
2018-01-07T07:21:01.892Z,47.80
2018-01-07T07:22:06.741Z,48.00
2018-01-07T07:23:12.115Z,48.20
2018-01-07T07:24:17.116Z,48.30
2018-01-07T07:25:22.413Z,48.60
2018-01-07T07:26:27.515Z,48.60
2018-01-07T07:27:32.377Z,48.80
2018-01-07T07:28:37.198Z,48.90
2018-01-07T07:29:42.335Z,48.90
2018-01-07T07:30:47.479Z,49.00
2018-01-07T07:31:52.286Z,49.30
2018-01-07T07:32:57.153Z,49.30
2018-01-07T07:34:02.013Z,49.40
2018-01-07T07:35:06.831Z,49.50
2018-01-07T07:36:13.474Z,49.60
2018-01-07T07:37:18.538Z,49.70
2018-01-07T07:38:23.296Z,49.80
2018-01-07T07:39:28.126Z,49.90
2018-01-07T07:40:32.962Z,49.80
2018-01-07T07:41:37.896Z,49.80
2018-01-07T07:42:42.625Z,49.80
2018-01-07T07:43:47.445Z,49.80
2018-01-07T07:44:52.383Z,49.90
2018-01-07T07:45:57.225Z,50.00
2018-01-07T07:47:02.067Z,50.20
2018-01-07T07:48:06.882Z,50.30
2018-01-07T07:49:11.776Z,50.40
2018-01-07T07:50:16.677Z,50.60
2018-01-07T07:51:21.512Z,50.80
2018-01-07T07:52:26.326Z,50.90
2018-01-07T07:53:31.193Z,51.10
2018-01-07T07:54:36.359Z,51.20
2018-01-07T07:55:41.164Z,51.30
2018-01-07T07:56:46.048Z,51.50
2018-01-07T07:57:50.859Z,51.70
2018-01-07T07:58:55.774Z,51.70
2018-01-07T08:00:00.754Z,52.10
2018-01-07T08:01:05.597Z,52.10
2018-01-07T08:02:10.625Z,52.20
2018-01-07T08:03:15.339Z,52.30
2018-01-07T08:04:20.249Z,52.40
2018-01-07T08:05:25.213Z,52.60
2018-01-07T08:06:30.080Z,52.70
2018-01-07T08:07:35.812Z,52.70
2018-01-07T08:08:41.021Z,52.80
2018-01-07T08:09:45.901Z,52.80
2018-01-07T08:10:50.824Z,52.90
2018-01-07T08:11:55.703Z,53.00
2018-01-07T08:13:00.781Z,53.10
2018-01-07T08:14:05.655Z,53.20
2018-01-07T08:15:10.577Z,53.40
2018-01-07T08:16:15.601Z,53.70
2018-01-07T08:17:20.569Z,53.90
2018-01-07T08:18:25.535Z,53.80
2018-01-07T08:19:30.362Z,53.70
2018-01-07T08:20:35.234Z,53.80
2018-01-07T08:21:40.116Z,53.90
2018-01-07T08:22:44.969Z,54.10
2018-01-07T08:23:49.837Z,54.30
2018-01-07T08:24:55.354Z,54.20
2018-01-07T08:26:00.412Z,54.30
2018-01-07T08:27:05.343Z,54.30
2018-01-07T08:28:10.198Z,54.40
2018-01-07T08:29:14.973Z,54.30
2018-01-07T08:30:20.021Z,54.00
2018-01-07T08:31:25.058Z,53.70
2018-01-07T08:32:29.915Z,53.40
2018-01-07T08:33:34.927Z,53.20
2018-01-07T08:34:39.993Z,53.10
2018-01-07T08:35:44.897Z,53.00
2018-01-07T08:36:50.095Z,53.10
2018-01-07T08:37:55.098Z,52.80
2018-01-07T08:39:00.160Z,52.80
2018-01-07T08:40:05.071Z,52.80
2018-01-07T08:41:13.116Z,52.60
2018-01-07T08:42:17.949Z,52.60
2018-01-07T08:43:22.905Z,52.60
2018-01-07T08:44:28.523Z,52.60
2018-01-07T08:45:33.381Z,52.60
2018-01-07T08:46:38.275Z,52.60
2018-01-07T08:47:43.404Z,52.60
2018-01-07T08:48:48.413Z,52.50
2018-01-07T08:49:53.411Z,52.40
2018-01-07T08:50:58.332Z,52.40
2018-01-07T08:52:03.164Z,52.30
2018-01-07T08:53:08.189Z,52.50
2018-01-07T08:54:13.172Z,52.60
2018-01-07T08:55:18.170Z,52.50
2018-01-07T08:56:22.967Z,52.30
2018-01-07T08:57:27.847Z,52.70
2018-01-07T08:58:33.454Z,52.90
2018-01-07T08:59:38.642Z,52.90
2018-01-07T09:00:43.549Z,52.90
2018-01-07T09:01:48.464Z,53.10
2018-01-07T09:02:53.504Z,53.20
2018-01-07T09:03:58.330Z,53.20
2018-01-07T09:05:03.461Z,53.40
2018-01-07T09:06:08.504Z,53.60
2018-01-07T09:07:13.524Z,53.70
2018-01-07T09:08:18.359Z,53.80
2018-01-07T09:09:23.277Z,53.90
2018-01-07T09:10:28.227Z,54.10
2018-01-07T09:11:33.163Z,54.20
2018-01-07T09:12:38.106Z,54.20
2018-01-07T09:13:43.012Z,54.30
2018-01-07T09:14:47.963Z,54.30
2018-01-07T09:15:53.024Z,54.30
2018-01-07T09:16:58.576Z,54.50
2018-01-07T09:18:03.601Z,54.60
2018-01-07T09:19:08.484Z,54.70
2018-01-07T09:20:13.340Z,54.60
2018-01-07T09:21:18.261Z,54.70
2018-01-07T09:22:23.279Z,54.70
2018-01-07T09:23:28.058Z,54.50
2018-01-07T09:24:32.895Z,54.10
2018-01-07T09:25:37.765Z,53.90
2018-01-07T09:26:42.739Z,53.80
2018-01-07T09:27:48.155Z,53.60
2018-01-07T09:28:53.252Z,53.70
2018-01-07T09:29:58.003Z,53.70
2018-01-07T09:31:03.379Z,53.80
2018-01-07T09:32:08.291Z,53.80
2018-01-07T09:33:13.225Z,53.80
2018-01-07T09:34:18.043Z,53.70
2018-01-07T09:34:36.239Z,53.70
2018-01-07T09:35:41.207Z,53.70
2018-01-07T09:36:45.892Z,53.70
2018-01-07T09:37:50.801Z,53.80
2018-01-07T09:38:55.696Z,53.80
2018-01-07T09:40:00.452Z,53.70
2018-01-07T09:41:05.244Z,54.00
2018-01-07T09:42:10.080Z,54.30
2018-01-07T09:43:14.936Z,54.60
2018-01-07T09:44:19.686Z,54.60
2018-01-07T09:45:24.626Z,54.70
2018-01-07T09:46:29.466Z,54.80
2018-01-07T09:47:34.301Z,54.80
2018-01-07T09:48:39.181Z,55.00
2018-01-07T09:49:44.149Z,55.10
2018-01-07T09:50:48.931Z,55.20
2018-01-07T09:51:56.214Z,55.10
2018-01-07T09:53:01.005Z,55.20
2018-01-07T09:54:05.916Z,55.20
2018-01-07T09:55:11.515Z,55.10
2018-01-07T09:56:16.441Z,55.10
2018-01-07T09:57:21.712Z,55.10
2018-01-07T09:58:27.091Z,55.10
2018-01-07T09:59:32.263Z,55.20
2018-01-07T10:00:37.557Z,55.30
2018-01-07T10:01:42.418Z,55.10
2018-01-07T10:02:48.604Z,55.30
2018-01-07T10:03:53.698Z,55.20
2018-01-07T10:04:58.548Z,55.80
2018-01-07T10:06:03.492Z,56.00
2018-01-07T10:07:08.397Z,55.80
2018-01-07T10:08:13.208Z,55.90
2018-01-07T10:09:18.690Z,55.90
2018-01-07T10:10:23.552Z,56.00
2018-01-07T10:11:29.911Z,56.00
2018-01-07T10:12:34.714Z,56.00
2018-01-07T10:13:39.798Z,56.00
2018-01-07T10:14:44.684Z,56.10
2018-01-07T10:15:49.566Z,56.20
2018-01-07T10:16:54.440Z,57.00
2018-01-07T10:17:59.964Z,57.00
2018-01-07T10:19:04.992Z,62.50
2018-01-07T10:20:09.807Z,59.00
2018-01-07T10:21:14.708Z,58.40
2018-01-07T10:22:19.536Z,58.20
2018-01-07T10:23:24.299Z,58.30
2018-01-07T10:24:29.215Z,58.40
2018-01-07T10:25:34.070Z,58.40
2018-01-07T10:26:39.080Z,58.40
2018-01-07T10:27:43.957Z,58.30
2018-01-07T10:28:48.907Z,58.20
2018-01-07T10:29:53.799Z,58.10
2018-01-07T10:30:58.637Z,58.20
2018-01-07T10:32:03.584Z,58.30
2018-01-07T10:33:09.251Z,58.30
2018-01-07T10:34:14.148Z,58.50
2018-01-07T10:35:19.159Z,58.40
2018-01-07T10:36:24.464Z,57.90
2018-01-07T10:37:29.542Z,58.60
2018-01-07T10:38:34.524Z,58.60
2018-01-07T10:39:39.549Z,58.50
2018-01-07T10:40:44.409Z,58.60
2018-01-07T10:41:49.655Z,58.70
2018-01-07T10:42:55.516Z,59.00
2018-01-07T10:44:00.894Z,59.00
2018-01-07T10:45:06.009Z,59.00
2018-01-07T10:46:13.996Z,59.20
2018-01-07T10:47:18.964Z,59.40
2018-01-07T10:48:25.001Z,59.40
2018-01-07T10:49:29.933Z,59.50
2018-01-07T10:50:34.826Z,59.50
2018-01-07T10:51:39.806Z,59.30
2018-01-07T10:52:44.657Z,59.50
2018-01-07T10:53:49.488Z,59.40
2018-01-07T10:54:54.195Z,59.00
2018-01-07T10:55:59.100Z,59.00
2018-01-07T10:57:03.972Z,58.80
2018-01-07T10:58:08.836Z,58.90
2018-01-07T10:59:13.636Z,58.80
2018-01-07T11:00:18.387Z,58.50
2018-01-07T11:01:23.266Z,58.40
2018-01-07T11:02:28.115Z,58.40
2018-01-07T11:03:32.902Z,58.20
2018-01-07T11:04:37.827Z,58.20
2018-01-07T11:05:42.658Z,58.00
2018-01-07T11:06:47.554Z,58.30
2018-01-07T11:07:52.427Z,58.60
2018-01-07T11:08:57.353Z,58.90
2018-01-07T11:10:02.335Z,59.30
2018-01-07T11:11:08.699Z,59.70
2018-01-07T11:12:13.535Z,59.80
2018-01-07T11:13:18.383Z,59.70
2018-01-07T11:14:23.223Z,60.10
2018-01-07T11:15:28.010Z,60.30
2018-01-07T11:16:32.875Z,60.10
2018-01-07T11:17:37.819Z,60.00
2018-01-07T11:18:42.600Z,60.00
2018-01-07T11:19:47.600Z,60.00
2018-01-07T11:20:52.899Z,60.00
2018-01-07T11:21:57.894Z,59.80
2018-01-07T11:23:03.219Z,59.10
2018-01-07T11:24:10.957Z,58.80
2018-01-07T11:25:15.895Z,58.60
2018-01-07T11:26:20.797Z,58.50
2018-01-07T11:27:25.734Z,58.60
2018-01-07T11:28:30.553Z,58.60
2018-01-07T11:29:35.592Z,59.00
2018-01-07T11:30:40.507Z,58.90
2018-01-07T11:31:45.408Z,59.00
2018-01-07T11:32:50.514Z,59.00
2018-01-07T11:33:55.474Z,59.10
2018-01-07T11:35:00.458Z,59.20
2018-01-07T11:36:05.420Z,59.30
2018-01-07T11:37:10.388Z,59.50
2018-01-07T11:38:15.365Z,59.60
2018-01-07T11:39:20.263Z,59.60
2018-01-07T11:40:26.371Z,59.80
2018-01-07T11:41:31.281Z,59.70
2018-01-07T11:42:36.209Z,59.80
2018-01-07T11:43:41.190Z,59.80
2018-01-07T11:44:46.197Z,59.80
2018-01-07T11:45:51.240Z,59.90
2018-01-07T11:46:56.165Z,59.80
2018-01-07T11:48:01.416Z,59.90
2018-01-07T11:49:06.444Z,60.00
2018-01-07T11:50:11.361Z,60.20
2018-01-07T11:51:16.581Z,60.40
2018-01-07T11:52:21.472Z,60.40
2018-01-07T11:53:26.298Z,60.50
2018-01-07T11:54:31.284Z,60.50
2018-01-07T11:55:36.607Z,60.40
2018-01-07T11:56:41.663Z,60.40
2018-01-07T11:57:46.704Z,60.40
2018-01-07T11:58:52.297Z,60.30
2018-01-07T11:59:57.446Z,60.40
2018-01-07T12:01:02.544Z,60.50
2018-01-07T12:02:07.438Z,60.60
2018-01-07T12:03:12.542Z,60.60
2018-01-07T12:04:17.443Z,60.50
2018-01-07T12:05:22.415Z,60.50
2018-01-07T12:06:27.422Z,60.30
2018-01-07T12:07:32.396Z,60.20
2018-01-07T12:08:37.442Z,60.20
2018-01-07T12:09:42.550Z,60.10
2018-01-07T12:10:47.452Z,60.00
2018-01-07T12:11:52.574Z,59.80
2018-01-07T12:12:57.442Z,59.80
2018-01-07T12:14:02.521Z,59.60
2018-01-07T12:15:07.333Z,59.60
2018-01-07T12:16:12.233Z,59.50
2018-01-07T12:17:17.448Z,59.40
2018-01-07T12:18:22.910Z,59.30
2018-01-07T12:19:27.821Z,59.20
2018-01-07T12:20:32.642Z,59.10
2018-01-07T12:21:37.567Z,59.60
2018-01-07T12:22:42.415Z,58.90
2018-01-07T12:23:47.833Z,58.70
2018-01-07T12:24:52.842Z,58.70
2018-01-07T12:25:57.823Z,58.70
2018-01-07T12:27:02.864Z,58.60
2018-01-07T12:28:08.035Z,57.00
2018-01-07T12:29:13.206Z,48.60
2018-01-07T12:30:18.078Z,44.90
2018-01-07T12:31:22.943Z,42.40
2018-01-07T12:32:27.837Z,41.40
2018-01-07T12:33:32.676Z,43.10
2018-01-07T12:34:37.439Z,40.60
2018-01-07T12:35:42.186Z,37.60
2018-01-07T12:36:47.072Z,37.70
2018-01-07T12:37:52.108Z,35.40
2018-01-07T12:38:57.341Z,37.10
2018-01-07T12:40:02.337Z,38.20
2018-01-07T12:41:07.186Z,37.60
2018-01-07T12:42:12.121Z,38.30
2018-01-07T12:43:17.220Z,38.40
2018-01-07T12:44:22.652Z,38.80
2018-01-07T12:45:27.429Z,39.10
2018-01-07T12:46:32.220Z,39.30
2018-01-07T12:47:37.054Z,39.90
2018-01-07T12:48:42.048Z,40.60
2018-01-07T12:49:47.089Z,41.50
2018-01-07T12:50:51.953Z,41.90
2018-01-07T12:51:56.920Z,42.30
2018-01-07T12:53:01.785Z,42.80
2018-01-07T12:54:06.777Z,43.30
2018-01-07T12:55:11.680Z,43.80
2018-01-07T12:56:16.439Z,44.40
2018-01-07T12:57:21.544Z,44.70
2018-01-07T12:58:26.414Z,45.10
2018-01-07T12:59:31.176Z,45.30
2018-01-07T13:00:35.939Z,45.70
2018-01-07T13:01:40.780Z,45.80
2018-01-07T13:02:45.740Z,46.10
2018-01-07T13:03:50.649Z,46.30
2018-01-07T13:04:55.547Z,46.50
2018-01-07T13:06:00.329Z,46.60
2018-01-07T13:07:05.297Z,46.70
2018-01-07T13:08:10.131Z,46.80
2018-01-07T13:09:15.064Z,46.90
2018-01-07T13:10:21.261Z,47.20
2018-01-07T13:11:26.251Z,47.40
2018-01-07T13:12:31.181Z,47.70
2018-01-07T13:13:36.266Z,47.90
2018-01-07T13:14:41.170Z,48.00
2018-01-07T13:15:46.057Z,48.10
2018-01-07T13:16:50.940Z,48.20
2018-01-07T13:17:56.151Z,48.30
2018-01-07T13:19:01.036Z,48.20
2018-01-07T13:20:07.233Z,48.40
2018-01-07T13:21:12.586Z,48.80
2018-01-07T13:22:17.761Z,48.90
2018-01-07T13:23:22.922Z,49.00
2018-01-07T13:24:27.819Z,49.20
2018-01-07T13:25:32.834Z,49.10
2018-01-07T13:26:37.768Z,49.30
2018-01-07T13:27:42.559Z,49.40
2018-01-07T13:28:48.348Z,49.50
2018-01-07T13:29:53.225Z,49.70
2018-01-07T13:30:57.932Z,50.20
2018-01-07T13:32:02.833Z,50.40
2018-01-07T13:33:07.826Z,50.30
2018-01-07T13:34:12.700Z,50.40
2018-01-07T13:35:18.362Z,50.40
2018-01-07T13:36:23.659Z,50.50
2018-01-07T13:37:29.051Z,50.50
2018-01-07T13:38:33.906Z,50.70
2018-01-07T13:39:38.966Z,50.70
2018-01-07T13:40:43.738Z,50.80
2018-01-07T13:41:48.695Z,50.90
2018-01-07T13:42:54.378Z,50.90
2018-01-07T13:43:59.948Z,51.50
2018-01-07T13:45:04.996Z,51.50
2018-01-07T13:46:11.164Z,51.30
2018-01-07T13:47:16.068Z,50.90
2018-01-07T13:48:20.959Z,50.90
2018-01-07T13:49:25.886Z,51.00
2018-01-07T13:50:31.345Z,51.20
2018-01-07T13:51:36.317Z,51.40
2018-01-07T13:52:41.201Z,51.60
2018-01-07T13:53:46.019Z,51.50
2018-01-07T13:54:50.883Z,52.20
2018-01-07T13:55:55.707Z,51.80